Oakville, CA

6:19 PM PDT on October 20, 2014 (GMT -0700)
Napa County | Change Station
CLOSE
Current Station
Airport
Location: Napa County,
Elevation: 33 ft
Nearby Weather Stations
4.2 Earthquake: Rio Dell, California (1 day ago)  

Elev 33 ft 38.21 °N, 122.28 °W | Updated 25 minutes ago

Partly Cloudy
Partly Cloudy
65 °F
Feels Like 65 °F
N
15
Wind Variable Wind from West

Today
High -- | Low -- °F
--% Chance of Precip.
Yesterday
High -- | Low -- °F
Precip. -- in
7:23 AM 6:24 PM
Waning Crescent, 8% visible
Pressure 29.93 in
Visibility 10.0 miles
Clouds Scattered Clouds 7500 ft
Dew Point 52 °F
Humidity 63%
Rainfall 0.00 in
Snow Depth Not available.
UV 0 out of 12
Pollen 4.00 out of 12
Ozone Good
PM2.5 Good
Flu Activity Sporadic
METAR KAPC 210054Z AUTO 27013KT 10SM SCT075 18/11 A2995 RMK AO2 SLP134 T01830111

More Conditions Fewer Conditions

Pressure 29.93 in
Visibility 10.0 miles
Clouds Scattered Clouds 7500 ft
Dew Point 52 °F
Humidity 63%
Rainfall 0.00 in
Snow Depth Not available.
UV 0 out of 12
Pollen 4.00 out of 12
Ozone Good
PM2.5 Good
Flu Activity Sporadic
METAR KAPC 210054Z AUTO 27013KT 10SM SCT075 18/11 A2995 RMK AO2 SLP134 T01830111

More Conditions Fewer Conditions

10-Day Weather Forecast

Almanac

Astronomy

Oct. 20, 2014 Rise Set
Actual Time 7:23 AM PDT 6:24 PM PDT
Civil Twilight 6:56 AM PDT 6:51 PM PDT
Nautical Twilight 6:25 AM PDT 7:22 PM PDT
Astronomical Twilight 5:55 AM PDT 7:52 PM PDT
Moon 4:19 AM PDT (10/20) 4:48 PM PDT (10/20)
Length of Visible Light 11h 54m
Length of Day
11h 00m
Tomorrow will be 2m 21s shorter.
Waning Crescent, 8% of the Moon is Illuminated
Today
Waning Crescent
Oct 23
New
Oct 30
First Quarter
Nov 6
Full
Nov 14
Last Quarter

Today's Extremes

State Highs State Lows

Community

WunderPhotos

Upload Photos

1,763,578 photos uploaded!

Nearby

Air Quality

  Air Quality AQ Index Pollutant
Yesterday Good
OZONE
Yesterday Good
PM2.5
Current Good
PM2.5
Current Good
OZONE
Monday Good
PM2.5
Tuesday Good
PM2.5
Wednesday Good
PM2.5
Thursday Good
PM2.5
Friday Good
PM2.5
Saturday Good
PM2.5

Snow Depth

Station Depth Elevation
Ward Creek #3 0 in 6750 ft
Rubicon #2 0 in 7500 ft
Echo Peak 1 in 7800 ft
Tahoe City Cross 0 in 6750 ft
Forestdale Creek 0 in 8029 ft

Earthquake Activity

City Distance Mag. Time & Date
Rio Dell, California 164 miles 4.2 7:24 AM PDT
2014-10-19
East Foothills, California 81 miles 2.6 8:16 AM PDT
2014-10-18
Minimum magnitude displayed is 2.5.

Coastal Water Temperatures

Place Temperature
San Francisco, CA 63.0 °F
Richmond, CA 64.0 °F
Port Chicago, CA 66.9 °F

Nearby Weather Stations